Bei Facebook empfehlenBei Twitter postenGoogle plusPinterest

Das Wetter im Erzgebirge am 08.05.2015

Wetter und Klima am 08.05.2015 Holzhau im Erzgebirge (630m ü.NN)
Letzte gemessene Temperatur und Uhrzeit der Messung23:45:00 Uhr8.10 °C
Temperatur (Maximum / Höchstwert) und Uhrzeit der Messung15:30:00 Uhr19.70 °C
Temperatur (Minimum / Tiefstwert) und Uhrzeit der Messung01:45:001.90 °C
Errechneter Absolutwert der Temperaturschwankungen zwischen Tmin und Tmax des Tages17.80 K
Errechnete Tagesmitteltemperatur11.08229 °C
Gesamt - Niederschlag des Tages (in flüssiger Form)0.00 Liter / m²
Luftdruck (Maximum / Höchstwert) und Zeitpunkt der Messung00:15:00 Uhr1018.10 hPa
Luftdruck (Minimum / Tiefstwert) und Zeitpunkt der Messung19:00:00 Uhr1013.30 hPa
Errechneter Absolutwert der Luftdruckschwankungen des Tages4.80 hPa
Höchste gemessene Windgeschwindigkeit und Uhrzeit der Messung13:00:00 Uhr10.08 km/h
Errechnete Windhäufigkeit in Relation zu den Messwerten des Tages11.45833 %
Niedrigste Windkühle (Windchill) und Zeitpunkt der Messung02:15:00 Uhr0.60 °C
Taupunkt (Maximum / Höchstwert) und Uhrzeit der Messung14:45:00 Uhr7.40 °C
Taupunkt (Minimum / Tiefstwert) und Uhrzeit der Messung01:45:000.00 °C
Anzahl der automatisch eingelesenen Messwerte 96

Detaillierte Wetter- und Klima- Messwerte für den 08.05.2015 in Holzhau im Erzgebirge (630m ü.NN)
ZeitTemperaturLuftdruckRel. LuftfeuchteWindWindrichtungWindchillTaupunktNiederschlag l/m²
23:45:008.10 °C1014.30 hPa79.00 %4.70 °C 
23:30:008.10 °C1014.10 hPa79.00 %4.70 °C 
23:15:007.90 °C1014.20 hPa79.00 %4.50 °C 
23:00:007.90 °C1014.20 hPa78.00 %4.30 °C 
22:45:008.20 °C1014.10 hPa77.00 %4.40 °C 
22:30:008.40 °C1014.00 hPa77.00 %4.60 °C 
22:15:008.60 °C1013.90 hPa77.00 %4.80 °C 
22:00:008.80 °C1013.80 hPa75.00 %4.60 °C 
21:45:009.10 °C1013.80 hPa75.00 %4.90 °C 
21:30:009.10 °C1013.90 hPa73.00 %4.50 °C 
21:15:009.80 °C1013.80 hPa72.00 %5.00 °C 
21:00:0010.30 °C1013.70 hPa72.00 %5.50 °C 
20:45:0010.80 °C1013.60 hPa70.00 %5.60 °C 
20:30:0011.50 °C1013.70 hPa66.00 %5.40 °C 
20:15:0012.60 °C1013.80 hPa62.00 %5.50 °C 
20:00:0013.90 °C1013.70 hPa58.00 %5.80 °C 
19:45:0015.00 °C1013.60 hPa53.00 %5.50 °C 
19:30:0016.10 °C1013.50 hPa49.00 %5.40 °C 
19:15:0016.60 °C1013.50 hPa48.00 %5.60 °C 
19:00:0017.30 °C1013.30 hPa47.00 %5.90 °C 
18:45:0018.20 °C1013.40 hPa46.00 %6.40 °C 
18:30:0018.70 °C1013.50 hPa45.00 %6.50 °C 
18:15:0018.70 °C1013.70 hPa45.00 %6.50 °C 
18:00:0018.50 °C1013.70 hPa44.00 %6.00 °C 
17:45:0019.10 °C1013.70 hPa44.00 %6.60 °C 
17:30:0018.50 °C1014.00 hPa45.00 %6.40 °C 
17:15:0018.50 °C1014.00 hPa44.00 %6.00 °C 
17:00:0019.20 °C1014.10 hPa43.00 %9.00 km/hSW19.70 °C6.30 °C 
16:45:0019.50 °C1014.00 hPa44.00 %5.04 km/hSSO20.50 °C6.90 °C 
16:30:0018.90 °C1014.10 hPa45.00 %6.70 °C 
16:15:0019.10 °C1014.30 hPa46.00 %7.20 °C 
16:00:0019.00 °C1014.30 hPa43.00 %6.10 °C 
15:45:0019.10 °C1014.40 hPa43.00 %6.20 °C 
15:30:0019.70 °C1014.60 hPa44.00 %8.28 km/hSSW20.40 °C7.10 °C 
15:15:0019.50 °C1014.60 hPa44.00 %6.90 °C 
15:00:0019.20 °C1014.70 hPa45.00 %7.00 °C 
14:45:0018.90 °C1014.70 hPa47.00 %7.40 °C 
14:30:0018.60 °C1014.70 hPa44.00 %6.10 °C 
14:15:0018.90 °C1015.00 hPa46.00 %7.00 °C 
14:00:0018.60 °C1015.20 hPa46.00 %6.80 °C 
13:45:0018.00 °C1015.10 hPa46.00 %6.20 °C 
13:30:0017.80 °C1015.50 hPa46.00 %6.00 °C 
13:15:0017.80 °C1015.40 hPa47.00 %6.30 °C 
13:00:0017.40 °C1015.30 hPa47.00 %10.08 km/hSSW17.50 °C6.00 °C 
12:45:0017.30 °C1015.50 hPa47.00 %5.90 °C 
12:30:0017.60 °C1015.50 hPa46.00 %5.90 °C 
12:15:0016.50 °C1015.70 hPa48.00 %2.16 km/hO16.50 °C5.50 °C 
12:00:0015.80 °C1015.70 hPa50.00 %5.40 °C 
11:45:0016.20 °C1015.80 hPa49.00 %5.50 °C 
11:30:0016.20 °C1016.00 hPa51.00 %6.10 °C 
11:15:0015.90 °C1015.80 hPa52.00 %6.10 °C 
11:00:0015.40 °C1016.00 hPa52.00 %5.60 °C 
10:45:0014.90 °C1016.10 hPa50.00 %4.60 °C 
10:30:0014.90 °C1016.20 hPa50.00 %4.60 °C 
10:15:0014.40 °C1016.40 hPa51.00 %4.40 °C 
10:00:0013.90 °C1016.30 hPa54.00 %6.84 km/hS13.80 °C4.80 °C 
09:45:0013.30 °C1016.50 hPa54.00 %4.20 °C 
09:30:0012.80 °C1016.70 hPa55.00 %10.08 km/hSSO12.00 °C4.00 °C 
09:15:0012.60 °C1016.80 hPa58.00 %5.40 km/hOSO12.60 °C4.60 °C 
09:00:0012.40 °C1017.00 hPa59.00 %4.60 °C 
08:45:0012.00 °C1016.90 hPa63.00 %3.24 km/hSO12.00 °C5.20 °C 
08:30:0011.50 °C1016.90 hPa66.00 %5.40 °C 
08:15:0011.20 °C1016.90 hPa70.00 %5.90 °C 
08:00:0010.20 °C1016.90 hPa76.00 %6.20 °C 
07:45:008.60 °C1017.10 hPa80.00 %5.40 °C 
07:30:006.80 °C1017.20 hPa84.00 %4.30 °C 
07:15:006.10 °C1017.20 hPa85.00 %3.80 °C 
07:00:005.50 °C1017.30 hPa86.00 %3.30 °C 
06:45:004.90 °C1017.20 hPa87.00 %2.90 °C 
06:30:004.50 °C1017.00 hPa88.00 %2.70 °C 
06:15:004.10 °C1017.20 hPa89.00 %2.50 °C 
06:00:003.50 °C1017.20 hPa89.00 %1.90 °C 
05:45:003.40 °C1017.20 hPa89.00 %1.80 °C 
05:30:003.30 °C1017.30 hPa89.00 %1.70 °C 
05:15:002.70 °C1017.30 hPa89.00 %1.10 °C 
05:00:002.40 °C1017.30 hPa88.00 %0.60 °C 
04:45:002.40 °C1017.40 hPa87.00 %0.50 °C 
04:30:002.40 °C1017.60 hPa87.00 %0.50 °C 
04:15:002.70 °C1017.50 hPa87.00 %0.80 °C 
04:00:002.90 °C1017.40 hPa86.00 %0.80 °C 
03:45:003.30 °C1017.50 hPa87.00 %1.30 °C 
03:30:003.50 °C1017.60 hPa87.00 %1.50 °C 
03:15:003.30 °C1017.60 hPa87.00 %1.30 °C 
03:00:003.30 °C1017.50 hPa87.00 %1.30 °C 
02:45:003.10 °C1017.50 hPa87.00 %5.40 km/hSO1.80 °C1.20 °C 
02:30:002.80 °C1017.70 hPa87.00 %0.90 °C 
02:15:002.60 °C1017.60 hPa87.00 %7.20 km/hO0.60 °C0.70 °C 
02:00:002.20 °C1017.60 hPa88.00 %0.40 °C 
01:45:001.90 °C1017.80 hPa87.00 %0.00 °C 
01:30:002.10 °C1017.90 hPa86.00 %0.00 °C 
01:15:002.30 °C1017.80 hPa86.00 %0.20 °C 
01:00:002.30 °C1018.00 hPa85.00 %0.00 °C 
00:45:002.70 °C1018.00 hPa84.00 %0.30 °C 
00:30:003.10 °C1018.00 hPa84.00 %0.70 °C 
00:15:003.30 °C1018.10 hPa84.00 %0.90 °C 
00:00:003.40 °C1018.00 hPa84.00 %1.00 °C 

Permanenter Link zu dieser Seite: Wetter im Erzgebirge am 08.05.2015
Performance-Info: Die Erstellung der Seite / Statistik(en) / Tabelle(n) erforderte 5 Datenbankserver-Abfrage(n) und dauerte 101 Millisekunden. (Dieser Messwert ist von der Gesamt-Auslastung des Servers abhängig.)
Erzgebirge - Wetter | Erzgebirge - Wetter (Mobilgeräte) | Komplette Klimadatenbank